Terminal Aerodrome Forecast
Issued by NWS

Home | Current Version | Previous Version | Text Only | Print | Product List | Glossary On
Versions: 1 2 3 4 5 6 7 8 9 10 11 12 13 14 15 16 17 18 19 20
000
FTUS42 KTBW 020900 AAA
TAFRSW
TAF AMD
KRSW 020936Z 0210/0306 VRB05KT 2SM BR SCT004 SCT010
      TEMPO 0210/0213 1/2SM FG VV004
     FM021400 09007KT P6SM SCT025
     FM022000 07008KT P6SM SCT040
     FM030100 VRB05KT P6SM FEW040=

USA.gov is the U.S. government's official web portal to all federal, state and local government web resources and services.